CheckWX is a tool to help pilots better visualize weather data.  It is not intended as a substitute for an official pre-flight weather briefing.

20:38:39 UTC

KLNK METAR
Lincoln Airport
Lincoln, Nebraska, USA
Current

45 mins ago

KLNK 231954Z 09007G16KT 10SM CLR 19/01 A3007 RMK AO2 SLP179 T01890006
Observed
Apr-23 @ 19:54 UTC
Wind
  • 090° at 7 KTS
  • Gusting to 16 KTS
Visibility
10 SM
Flight Rules
VFR
Cloud Levels
  • Clear skies
Temperature
19°C / 66°F
Dewpoint
C / 34°F
Humidity
30%
Altimeter
30.07" Hg
Pressure
1018.32 hPa
Previous

2 hours ago

KLNK 231854Z 08010G18KT 10SM CLR 19/01 A3009 RMK AO2 SLP187 T01890006
Observed
Apr-23 @ 18:54 UTC
Wind
  • 080° at 10 KTS
  • Gusting to 18 KTS
Visibility
10 SM
Flight Rules
VFR
Cloud Levels
  • Clear skies
Temperature
19°C / 66°F
Dewpoint
C / 34°F
Humidity
30%
Altimeter
30.09" Hg
Pressure
1018.92 hPa
Previous

3 hours ago

KLNK 231754Z 05011G21KT 10SM CLR 18/02 A3011 RMK AO2 SLP194 T01830022 10183 20056 58018
Observed
Apr-23 @ 17:54 UTC
Wind
  • 050° at 11 KTS
  • Gusting to 21 KTS
Visibility
10 SM
Flight Rules
VFR
Cloud Levels
  • Clear skies
Temperature
18°C / 64°F
Dewpoint
C / 36°F
Humidity
34%
Altimeter
30.11" Hg
Pressure
1019.62 hPa